CheckWX is a tool to help pilots better visualize weather data.  It is not intended as a substitute for an official pre-flight weather briefing.

10:41:37 UTC

KCCY METAR
Northeast Iowa Regional Airport
Charles City, Iowa, USA
Current

27 mins ago

KCCY 171015Z AUTO 16006KT 10SM SCT220 19/18 A3008 RMK AO2
Observed
Sep-17 @ 10:15 UTC
Wind
  • 160° at 6 KTS
Visibility
10 SM
Flight Rules
VFR
Cloud Levels
  • Scattered at 22,000' AGL
Temperature
19°C / 66°F
Dewpoint
18°C / 64°F
Humidity
94%
Altimeter
30.08" Hg
Pressure
1018.62 hPa
Previous

47 mins ago

KCCY 170955Z AUTO 14007KT 10SM CLR 19/18 A3008 RMK AO2
Observed
Sep-17 @ 09:55 UTC
Wind
  • 140° at 7 KTS
Visibility
10 SM
Flight Rules
VFR
Cloud Levels
  • Clear skies
Temperature
19°C / 66°F
Dewpoint
18°C / 64°F
Humidity
94%
Altimeter
30.08" Hg
Pressure
1018.62 hPa
Previous

1 hour ago

KCCY 170935Z AUTO 15007KT 10SM FEW220 19/18 A3008 RMK AO2
Observed
Sep-17 @ 09:35 UTC
Wind
  • 150° at 7 KTS
Visibility
10 SM
Flight Rules
VFR
Cloud Levels
  • Few at 22,000' AGL
Temperature
19°C / 66°F
Dewpoint
18°C / 64°F
Humidity
94%
Altimeter
30.08" Hg
Pressure
1018.62 hPa